Time,TemperatureF,DewpointF,PressureIn,WindDirection,WindDirectionDegrees,WindSpeedMPH,WindSpeedGustMPH,Humidity,HourlyPrecipIn,Conditions,Clouds,dailyrainin,SoftwareType,DateUTC
2013-03-04 00:21:00,48.0,38.0,30.10,NW,310,3.0,6.0,68,0.00,,,-99.99,,2013-03-04 08:21:00,
2013-03-04 00:31:00,48.0,38.0,30.10,NW,310,3.0,6.0,68,0.00,,,-99.99,,2013-03-04 08:31:00,
2013-03-04 00:41:00,48.0,38.0,30.10,NW,310,3.0,6.0,68,0.00,,,-99.99,,2013-03-04 08:41:00,
2013-03-04 01:21:00,45.0,38.0,30.09,West,270,6.0,11.0,75,0.00,,,-99.99,,2013-03-04 09:21:00,
2013-03-04 01:31:00,45.0,38.0,30.09,West,270,6.0,11.0,75,0.00,,,-99.99,,2013-03-04 09:31:00,
2013-03-04 01:42:00,45.0,38.0,30.09,West,270,6.0,11.0,75,0.00,,,-99.99,,2013-03-04 09:42:00,
2013-03-04 02:21:00,47.0,37.0,30.11,West,280,4.0,12.0,69,0.00,,,-99.99,,2013-03-04 10:21:00,
2013-03-04 02:31:00,47.0,37.0,30.11,West,280,4.0,12.0,69,0.00,,,-99.99,,2013-03-04 10:31:00,
2013-03-04 02:42:00,47.0,37.0,30.11,West,280,4.0,12.0,69,0.00,,,-99.99,,2013-03-04 10:42:00,
2013-03-04 03:21:00,45.0,39.0,30.11,West,270,5.0,7.0,78,0.00,,,-99.99,,2013-03-04 11:21:00,
2013-03-04 03:31:00,45.0,39.0,30.11,West,270,5.0,7.0,78,0.00,,,-99.99,,2013-03-04 11:31:00,
2013-03-04 03:41:00,45.0,39.0,30.11,West,270,5.0,7.0,78,0.00,,,-99.99,,2013-03-04 11:41:00,
2013-03-04 12:21:00,62.0,35.0,30.19,NE,40,1.0,7.0,37,0.00,,,-99.99,,2013-03-04 20:21:00,
2013-03-04 12:32:00,62.0,35.0,30.19,NE,40,1.0,7.0,37,0.00,,,-99.99,,2013-03-04 20:32:00,
2013-03-04 12:42:00,62.0,35.0,30.19,NE,40,1.0,7.0,37,0.00,,,-99.99,,2013-03-04 20:42:00,
2013-03-04 13:21:00,64.0,36.0,30.18,East,80,4.0,6.0,35,0.00,,,-99.99,,2013-03-04 21:21:00,
2013-03-04 13:32:00,64.0,36.0,30.18,East,80,4.0,6.0,35,0.00,,,-99.99,,2013-03-04 21:32:00,
2013-03-04 13:42:00,64.0,36.0,30.18,East,80,4.0,6.0,35,0.00,,,-99.99,,2013-03-04 21:42:00,
2013-03-04 14:22:00,66.0,34.0,30.16,NNE,20,5.0,10.0,30,0.00,,,-99.99,,2013-03-04 22:22:00,
2013-03-04 14:32:00,66.0,34.0,30.16,NNE,20,5.0,10.0,30,0.00,,,-99.99,,2013-03-04 22:32:00,
2013-03-04 14:42:00,66.0,34.0,30.16,NNE,20,5.0,10.0,30,0.00,,,-99.99,,2013-03-04 22:42:00,
2013-03-04 15:21:00,67.0,34.0,30.16,NE,50,3.0,6.0,29,0.00,,,-99.99,,2013-03-04 23:21:00,
2013-03-04 15:32:00,67.0,34.0,30.16,NE,50,3.0,6.0,29,0.00,,,-99.99,,2013-03-04 23:32:00,
2013-03-04 15:42:00,67.0,34.0,30.16,NE,50,3.0,6.0,29,0.00,,,-99.99,,2013-03-04 23:42:00,
2013-03-04 16:21:00,67.0,32.0,30.16,NE,50,3.0,6.0,27,0.00,,,-99.99,,2013-03-05 00:21:00,
2013-03-04 16:32:00,67.0,32.0,30.16,NE,50,3.0,6.0,27,0.00,,,-99.99,,2013-03-05 00:32:00,
2013-03-04 16:42:00,67.0,32.0,30.16,NE,50,3.0,6.0,27,0.00,,,-99.99,,2013-03-05 00:42:00,
2013-03-04 17:21:00,67.0,31.0,30.16,North,0,0.0,2.0,26,0.00,,,-99.99,,2013-03-05 01:21:00,
2013-03-04 17:32:00,67.0,31.0,30.16,North,0,0.0,2.0,26,0.00,,,-99.99,,2013-03-05 01:32:00,
2013-03-04 17:41:00,67.0,31.0,30.16,North,0,0.0,2.0,26,0.00,,,-99.99,,2013-03-05 01:41:00,
2013-03-04 18:21:00,65.0,32.0,30.16,North,0,0.0,1.0,29,0.00,,,-99.99,,2013-03-05 02:21:00,
2013-03-04 18:32:00,65.0,32.0,30.16,North,0,0.0,1.0,29,0.00,,,-99.99,,2013-03-05 02:32:00,
2013-03-04 18:41:00,65.0,32.0,30.16,North,0,0.0,1.0,29,0.00,,,-99.99,,2013-03-05 02:41:00,
2013-03-04 19:22:00,58.0,40.0,30.19,North,350,3.0,5.0,52,0.00,,,-99.99,,2013-03-05 03:22:00,
2013-03-04 19:32:00,58.0,40.0,30.19,North,350,3.0,5.0,52,0.00,,,-99.99,,2013-03-05 03:32:00,
2013-03-04 19:41:00,58.0,40.0,30.19,North,350,3.0,5.0,52,0.00,,,-99.99,,2013-03-05 03:41:00,
2013-03-04 20:21:00,54.0,41.0,30.20,NW,310,5.0,12.0,61,0.00,,,-99.99,,2013-03-05 04:21:00,
2013-03-04 20:32:00,54.0,41.0,30.20,NW,310,5.0,12.0,61,0.00,,,-99.99,,2013-03-05 04:32:00,
2013-03-04 20:42:00,54.0,41.0,30.20,NW,310,5.0,12.0,61,0.00,,,-99.99,,2013-03-05 04:42:00,
2013-03-04 21:22:00,53.0,40.0,30.20,WNW,290,5.0,9.0,62,0.00,,,-99.99,,2013-03-05 05:22:00,
2013-03-04 21:31:00,53.0,40.0,30.20,WNW,290,5.0,9.0,62,0.00,,,-99.99,,2013-03-05 05:31:00,
2013-03-04 21:42:00,53.0,40.0,30.20,WNW,290,5.0,9.0,62,0.00,,,-99.99,,2013-03-05 05:42:00,
2013-03-04 22:22:00,50.0,37.0,30.20,West,280,5.0,9.0,61,0.00,,,-99.99,,2013-03-05 06:22:00,
2013-03-04 22:31:00,50.0,37.0,30.20,West,280,5.0,9.0,61,0.00,,,-99.99,,2013-03-05 06:31:00,
2013-03-04 22:41:00,50.0,37.0,30.20,West,280,5.0,9.0,61,0.00,,,-99.99,,2013-03-05 06:41:00,
2013-03-04 23:21:00,50.0,37.0,30.21,West,280,4.0,6.0,60,0.00,,,-99.99,,2013-03-05 07:21:00,
2013-03-04 23:31:00,50.0,37.0,30.21,West,280,4.0,6.0,60,0.00,,,-99.99,,2013-03-05 07:31:00,
2013-03-04 23:41:00,50.0,37.0,30.21,West,280,4.0,6.0,60,0.00,,,-99.99,,2013-03-05 07:41:00,